sensor_id;sensor_type;location;lat;lon;timestamp;pressure;altitude;pressure_sealevel;temperature;humidity
42771;BME280;28426;42.872;25.314;2023-09-12T00:02:25;97121.06;;;12.87;55.42
42771;BME280;28426;42.872;25.314;2023-09-12T00:04:57;97116.09;;;12.84;55.55
42771;BME280;28426;42.872;25.314;2023-09-12T00:07:32;97120.22;;;12.80;55.82
42771;BME280;28426;42.872;25.314;2023-09-12T00:10:03;97119.59;;;12.78;55.93
42771;BME280;28426;42.872;25.314;2023-09-12T00:12:34;97119.97;;;12.75;55.79
42771;BME280;28426;42.872;25.314;2023-09-12T00:15:06;97115.66;;;12.74;55.90
42771;BME280;28426;42.872;25.314;2023-09-12T00:17:38;97123.03;;;12.72;56.06
42771;BME280;28426;42.872;25.314;2023-09-12T00:20:10;97117.91;;;12.70;56.33
42771;BME280;28426;42.872;25.314;2023-09-12T00:22:44;97121.78;;;12.67;56.25
42771;BME280;28426;42.872;25.314;2023-09-12T00:25:15;97115.81;;;12.65;56.90
42771;BME280;28426;42.872;25.314;2023-09-12T00:27:46;97124.88;;;12.64;56.46
42771;BME280;28426;42.872;25.314;2023-09-12T00:30:17;97125.91;;;12.63;56.81
42771;BME280;28426;42.872;25.314;2023-09-12T00:32:48;97125.25;;;12.61;57.27
42771;BME280;28426;42.872;25.314;2023-09-12T00:35:18;97124.66;;;12.59;56.92
42771;BME280;28426;42.872;25.314;2023-09-12T00:37:52;97122.97;;;12.58;56.93
42771;BME280;28426;42.872;25.314;2023-09-12T00:40:23;97127.72;;;12.56;57.33
42771;BME280;28426;42.872;25.314;2023-09-12T00:42:53;97131.41;;;12.55;57.22
42771;BME280;28426;42.872;25.314;2023-09-12T00:45:24;97123.38;;;12.55;57.51
42771;BME280;28426;42.872;25.314;2023-09-12T00:47:58;97122.56;;;12.54;57.31
42771;BME280;28426;42.872;25.314;2023-09-12T00:50:30;97125.41;;;12.53;57.73
42771;BME280;28426;42.872;25.314;2023-09-12T00:53:05;97132.00;;;12.50;57.81
42771;BME280;28426;42.872;25.314;2023-09-12T00:55:40;97127.88;;;12.48;58.07
42771;BME280;28426;42.872;25.314;2023-09-12T00:58:13;97135.66;;;12.42;58.23
42771;BME280;28426;42.872;25.314;2023-09-12T01:00:45;97129.66;;;12.40;58.69
42771;BME280;28426;42.872;25.314;2023-09-12T01:03:16;97127.59;;;12.36;58.45
42771;BME280;28426;42.872;25.314;2023-09-12T01:05:47;97130.66;;;12.33;58.68
42771;BME280;28426;42.872;25.314;2023-09-12T01:08:22;97132.91;;;12.29;59.07
42771;BME280;28426;42.872;25.314;2023-09-12T01:10:55;97131.63;;;12.25;59.04
42771;BME280;28426;42.872;25.314;2023-09-12T01:13:27;97131.00;;;12.23;58.77
42771;BME280;28426;42.872;25.314;2023-09-12T01:15:59;97131.19;;;12.21;59.40
42771;BME280;28426;42.872;25.314;2023-09-12T01:18:29;97134.06;;;12.20;59.18
42771;BME280;28426;42.872;25.314;2023-09-12T01:21:36;97128.91;;;12.18;60.15
42771;BME280;28426;42.872;25.314;2023-09-12T01:24:17;97133.84;;;12.14;60.61
42771;BME280;28426;42.872;25.314;2023-09-12T01:29:38;97135.44;;;12.09;60.19
42771;BME280;28426;42.872;25.314;2023-09-12T01:32:10;97136.47;;;12.08;60.64
42771;BME280;28426;42.872;25.314;2023-09-12T01:34:42;97137.66;;;12.05;60.00
42771;BME280;28426;42.872;25.314;2023-09-12T01:37:13;97135.97;;;12.04;60.01
42771;BME280;28426;42.872;25.314;2023-09-12T01:39:45;97143.38;;;12.02;60.64
42771;BME280;28426;42.872;25.314;2023-09-12T01:42:20;97132.00;;;12.00;60.47
42771;BME280;28426;42.872;25.314;2023-09-12T01:44:55;97130.56;;;11.97;60.47
42771;BME280;28426;42.872;25.314;2023-09-12T01:47:26;97135.09;;;11.97;61.68
42771;BME280;28426;42.872;25.314;2023-09-12T01:49:59;97131.16;;;11.93;62.15
42771;BME280;28426;42.872;25.314;2023-09-12T01:52:32;97131.34;;;11.91;61.44
42771;BME280;28426;42.872;25.314;2023-09-12T01:55:04;97129.88;;;11.88;61.17
42771;BME280;28426;42.872;25.314;2023-09-12T01:57:37;97132.56;;;11.88;61.30
42771;BME280;28426;42.872;25.314;2023-09-12T02:00:13;97132.75;;;11.87;61.77
42771;BME280;28426;42.872;25.314;2023-09-12T02:02:44;97127.59;;;11.85;61.32
42771;BME280;28426;42.872;25.314;2023-09-12T02:05:17;97123.25;;;11.84;61.55
42771;BME280;28426;42.872;25.314;2023-09-12T02:07:50;97133.97;;;11.84;61.53
42771;BME280;28426;42.872;25.314;2023-09-12T02:10:21;97131.66;;;11.81;61.78
42771;BME280;28426;42.872;25.314;2023-09-12T02:12:52;97138.22;;;11.78;61.75
42771;BME280;28426;42.872;25.314;2023-09-12T02:15:26;97128.75;;;11.76;61.71
42771;BME280;28426;42.872;25.314;2023-09-12T02:17:57;97137.78;;;11.75;62.90
42771;BME280;28426;42.872;25.314;2023-09-12T02:20:28;97132.63;;;11.73;62.50
42771;BME280;28426;42.872;25.314;2023-09-12T02:22:59;97128.50;;;11.71;62.42
42771;BME280;28426;42.872;25.314;2023-09-12T02:25:29;97131.53;;;11.68;62.73
42771;BME280;28426;42.872;25.314;2023-09-12T02:28:02;97130.25;;;11.63;63.24
42771;BME280;28426;42.872;25.314;2023-09-12T02:30:38;97129.84;;;11.60;63.13
42771;BME280;28426;42.872;25.314;2023-09-12T02:33:09;97135.19;;;11.60;63.67
42771;BME280;28426;42.872;25.314;2023-09-12T02:35:40;97122.00;;;11.58;63.46
42771;BME280;28426;42.872;25.314;2023-09-12T02:38:11;97125.50;;;11.59;63.35
42771;BME280;28426;42.872;25.314;2023-09-12T02:40:42;97126.31;;;11.59;63.58
42771;BME280;28426;42.872;25.314;2023-09-12T02:43:12;97127.34;;;11.58;63.75
42771;BME280;28426;42.872;25.314;2023-09-12T02:45:46;97127.16;;;11.60;63.71
42771;BME280;28426;42.872;25.314;2023-09-12T02:48:17;97129.00;;;11.59;63.62
42771;BME280;28426;42.872;25.314;2023-09-12T02:50:48;97133.34;;;11.60;63.73
42771;BME280;28426;42.872;25.314;2023-09-12T02:53:19;97130.66;;;11.60;64.00
42771;BME280;28426;42.872;25.314;2023-09-12T02:55:51;97131.47;;;11.61;63.86
42771;BME280;28426;42.872;25.314;2023-09-12T02:58:22;97132.31;;;11.61;64.37
42771;BME280;28426;42.872;25.314;2023-09-12T03:00:55;97126.97;;;11.61;64.29
42771;BME280;28426;42.872;25.314;2023-09-12T03:03:27;97131.47;;;11.61;64.72
42771;BME280;28426;42.872;25.314;2023-09-12T03:05:58;97132.50;;;11.60;64.59
42771;BME280;28426;42.872;25.314;2023-09-12T03:08:30;97124.66;;;11.58;64.18
42771;BME280;28426;42.872;25.314;2023-09-12T03:11:01;97136.38;;;11.57;64.29
42771;BME280;28426;42.872;25.314;2023-09-12T03:13:32;97136.38;;;11.57;64.80
42771;BME280;28426;42.872;25.314;2023-09-12T03:16:09;97132.25;;;11.55;65.03
42771;BME280;28426;42.872;25.314;2023-09-12T03:18:40;97135.09;;;11.53;64.40
42771;BME280;28426;42.872;25.314;2023-09-12T03:21:12;97141.47;;;11.52;64.96
42771;BME280;28426;42.872;25.314;2023-09-12T03:23:42;97132.81;;;11.50;64.72
42771;BME280;28426;42.872;25.314;2023-09-12T03:26:14;97142.50;;;11.51;64.45
42771;BME280;28426;42.872;25.314;2023-09-12T03:28:45;97136.50;;;11.49;64.70
42771;BME280;28426;42.872;25.314;2023-09-12T03:31:18;97143.72;;;11.48;64.70
42771;BME280;28426;42.872;25.314;2023-09-12T03:33:50;97140.19;;;11.48;64.50
42771;BME280;28426;42.872;25.314;2023-09-12T03:36:21;97136.69;;;11.47;64.51
42771;BME280;28426;42.872;25.314;2023-09-12T03:38:53;97135.69;;;11.48;64.44
42771;BME280;28426;42.872;25.314;2023-09-12T03:41:24;97140.19;;;11.48;64.66
42771;BME280;28426;42.872;25.314;2023-09-12T03:43:57;97137.34;;;11.49;64.47
42771;BME280;28426;42.872;25.314;2023-09-12T03:46:30;97133.22;;;11.47;64.88
42771;BME280;28426;42.872;25.314;2023-09-12T03:49:01;97139.53;;;11.46;64.99
42771;BME280;28426;42.872;25.314;2023-09-12T03:51:33;97138.75;;;11.45;65.40
42771;BME280;28426;42.872;25.314;2023-09-12T03:54:06;97145.28;;;11.43;65.31
42771;BME280;28426;42.872;25.314;2023-09-12T03:56:37;97138.31;;;11.42;65.33
42771;BME280;28426;42.872;25.314;2023-09-12T03:59:12;97141.16;;;11.40;65.08
42771;BME280;28426;42.872;25.314;2023-09-12T04:01:46;97145.03;;;11.37;65.76
42771;BME280;28426;42.872;25.314;2023-09-12T04:04:17;97141.53;;;11.37;66.06
42771;BME280;28426;42.872;25.314;2023-09-12T04:06:48;97141.72;;;11.35;65.78
42771;BME280;28426;42.872;25.314;2023-09-12T04:09:19;97147.06;;;11.35;65.98
42771;BME280;28426;42.872;25.314;2023-09-12T04:11:49;97144.38;;;11.35;66.00
42771;BME280;28426;42.872;25.314;2023-09-12T04:14:21;97143.56;;;11.35;65.94
42771;BME280;28426;42.872;25.314;2023-09-12T04:16:55;97148.91;;;11.35;66.08
42771;BME280;28426;42.872;25.314;2023-09-12T04:19:29;97146.03;;;11.36;66.01
42771;BME280;28426;42.872;25.314;2023-09-12T04:22:00;97152.22;;;11.37;66.18
42771;BME280;28426;42.872;25.314;2023-09-12T04:24:32;97144.00;;;11.38;66.14
42771;BME280;28426;42.872;25.314;2023-09-12T04:27:04;97143.81;;;11.40;65.91
42771;BME280;28426;42.872;25.314;2023-09-12T04:29:35;97146.09;;;11.43;66.01
42771;BME280;28426;42.872;25.314;2023-09-12T04:32:09;97137.91;;;11.45;66.59
42771;BME280;28426;42.872;25.314;2023-09-12T04:34:42;97142.88;;;11.48;66.16
42771;BME280;28426;42.872;25.314;2023-09-12T04:37:13;97139.19;;;11.49;66.17
42771;BME280;28426;42.872;25.314;2023-09-12T04:39:45;97138.44;;;11.55;66.19
42771;BME280;28426;42.872;25.314;2023-09-12T04:42:16;97138.03;;;11.58;66.35
42771;BME280;28426;42.872;25.314;2023-09-12T04:44:47;97137.66;;;11.61;66.38
42771;BME280;28426;42.872;25.314;2023-09-12T04:47:20;97149.44;;;11.67;66.86
42771;BME280;28426;42.872;25.314;2023-09-12T04:49:52;97145.16;;;11.73;66.59
42771;BME280;28426;42.872;25.314;2023-09-12T04:52:23;97150.78;;;11.78;66.46
42771;BME280;28426;42.872;25.314;2023-09-12T04:54:54;97147.31;;;11.84;66.44
42771;BME280;28426;42.872;25.314;2023-09-12T04:57:25;97151.53;;;11.94;66.28
42771;BME280;28426;42.872;25.314;2023-09-12T04:59:58;97159.22;;;12.03;66.68
42771;BME280;28426;42.872;25.314;2023-09-12T05:02:34;97148.41;;;12.12;66.49
42771;BME280;28426;42.872;25.314;2023-09-12T05:05:06;97150.97;;;12.27;66.49
42771;BME280;28426;42.872;25.314;2023-09-12T05:07:37;97166.75;;;12.43;66.62
42771;BME280;28426;42.872;25.314;2023-09-12T05:10:08;97160.06;;;12.61;66.37
42771;BME280;28426;42.872;25.314;2023-09-12T05:12:40;97155.66;;;12.82;66.25
42771;BME280;28426;42.872;25.314;2023-09-12T05:15:11;97160.91;;;13.04;65.99
42771;BME280;28426;42.872;25.314;2023-09-12T05:17:44;97161.03;;;13.31;65.73
42771;BME280;28426;42.872;25.314;2023-09-12T05:20:15;97153.06;;;13.58;65.18
42771;BME280;28426;42.872;25.314;2023-09-12T05:22:46;97157.03;;;13.89;64.90
42771;BME280;28426;42.872;25.314;2023-09-12T05:25:17;97155.38;;;14.22;64.38
42771;BME280;28426;42.872;25.314;2023-09-12T05:27:48;97148.94;;;14.57;63.95
42771;BME280;28426;42.872;25.314;2023-09-12T05:30:19;97144.53;;;14.96;63.66
42771;BME280;28426;42.872;25.314;2023-09-12T05:32:53;97152.00;;;15.40;62.33
42771;BME280;28426;42.872;25.314;2023-09-12T05:35:24;97144.91;;;15.85;61.50
42771;BME280;28426;42.872;25.314;2023-09-12T05:37:55;97146.41;;;16.31;60.71
42771;BME280;28426;42.872;25.314;2023-09-12T05:40:26;97148.63;;;16.79;59.32
42771;BME280;28426;42.872;25.314;2023-09-12T05:42:57;97142.50;;;17.28;59.12
42771;BME280;28426;42.872;25.314;2023-09-12T05:45:29;97141.41;;;17.78;57.59
42771;BME280;28426;42.872;25.314;2023-09-12T05:48:04;97142.09;;;18.28;56.70
42771;BME280;28426;42.872;25.314;2023-09-12T05:50:36;97137.50;;;18.76;55.30
42771;BME280;28426;42.872;25.314;2023-09-12T05:53:08;97142.81;;;19.24;53.87
42771;BME280;28426;42.872;25.314;2023-09-12T05:55:39;97140.66;;;19.67;52.71
42771;BME280;28426;42.872;25.314;2023-09-12T05:58:09;97140.31;;;20.10;52.00
42771;BME280;28426;42.872;25.314;2023-09-12T06:00:40;97144.25;;;20.54;50.91
42771;BME280;28426;42.872;25.314;2023-09-12T06:03:14;97139.66;;;20.94;49.47
42771;BME280;28426;42.872;25.314;2023-09-12T06:05:46;97139.06;;;21.36;49.10
42771;BME280;28426;42.872;25.314;2023-09-12T06:08:17;97143.88;;;21.79;48.12
42771;BME280;28426;42.872;25.314;2023-09-12T06:10:47;97133.94;;;22.23;46.91
42771;BME280;28426;42.872;25.314;2023-09-12T06:13:21;97150.81;;;22.63;46.02
42771;BME280;28426;42.872;25.314;2023-09-12T06:15:52;97146.66;;;23.03;45.27
42771;BME280;28426;42.872;25.314;2023-09-12T06:18:26;97152.56;;;23.43;43.83
42771;BME280;28426;42.872;25.314;2023-09-12T06:20:58;97152.63;;;23.69;42.57
42771;BME280;28426;42.872;25.314;2023-09-12T06:23:31;97157.03;;;23.96;41.79
42771;BME280;28426;42.872;25.314;2023-09-12T06:26:02;97154.59;;;24.26;41.61
42771;BME280;28426;42.872;25.314;2023-09-12T06:28:33;97154.84;;;24.55;41.15
42771;BME280;28426;42.872;25.314;2023-09-12T06:31:08;97151.25;;;24.81;40.03
42771;BME280;28426;42.872;25.314;2023-09-12T06:33:42;97153.38;;;25.10;40.00
42771;BME280;28426;42.872;25.314;2023-09-12T06:36:13;97158.44;;;25.38;38.97
42771;BME280;28426;42.872;25.314;2023-09-12T06:38:44;97156.72;;;25.63;38.97
42771;BME280;28426;42.872;25.314;2023-09-12T06:41:14;97157.63;;;25.93;38.30
42771;BME280;28426;42.872;25.314;2023-09-12T06:43:46;97159.31;;;26.23;37.76
42771;BME280;28426;42.872;25.314;2023-09-12T06:46:17;97151.41;;;26.51;37.75
42771;BME280;28426;42.872;25.314;2023-09-12T06:48:50;97145.84;;;26.86;37.44
42771;BME280;28426;42.872;25.314;2023-09-12T06:51:24;97155.63;;;27.22;36.60
42771;BME280;28426;42.872;25.314;2023-09-12T06:54:02;97157.06;;;27.58;36.13
42771;BME280;28426;42.872;25.314;2023-09-12T06:56:33;97157.78;;;27.88;35.02
42771;BME280;28426;42.872;25.314;2023-09-12T06:59:05;97161.38;;;28.22;34.45
42771;BME280;28426;42.872;25.314;2023-09-12T07:01:36;97158.72;;;28.50;34.11
42771;BME280;28426;42.872;25.314;2023-09-12T07:04:10;97163.47;;;28.78;33.43
42771;BME280;28426;42.872;25.314;2023-09-12T07:06:41;97160.94;;;29.09;33.35
42771;BME280;28426;42.872;25.314;2023-09-12T07:09:12;97154.81;;;29.41;32.48
42771;BME280;28426;42.872;25.314;2023-09-12T07:11:44;97149.97;;;29.74;31.97
42771;BME280;28426;42.872;25.314;2023-09-12T07:14:15;97153.31;;;30.08;31.66
42771;BME280;28426;42.872;25.314;2023-09-12T07:16:46;97152.09;;;30.37;30.84
42771;BME280;28426;42.872;25.314;2023-09-12T07:19:20;97152.56;;;30.62;30.25
42771;BME280;28426;42.872;25.314;2023-09-12T07:21:51;97146.72;;;30.87;30.47
42771;BME280;28426;42.872;25.314;2023-09-12T07:24:25;97146.47;;;31.15;29.59
42771;BME280;28426;42.872;25.314;2023-09-12T07:26:56;97149.34;;;31.41;29.88
42771;BME280;28426;42.872;25.314;2023-09-12T07:29:27;97149.22;;;31.64;29.01
42771;BME280;28426;42.872;25.314;2023-09-12T07:31:57;97153.59;;;31.83;28.47
42771;BME280;28426;42.872;25.314;2023-09-12T07:34:31;97149.72;;;32.02;28.07
42771;BME280;28426;42.872;25.314;2023-09-12T07:37:02;97162.06;;;32.13;27.30
42771;BME280;28426;42.872;25.314;2023-09-12T07:39:33;97150.53;;;32.20;27.05
42771;BME280;28426;42.872;25.314;2023-09-12T07:42:04;97153.91;;;32.26;26.33
42771;BME280;28426;42.872;25.314;2023-09-12T07:44:35;97157.16;;;32.28;25.84
42771;BME280;28426;42.872;25.314;2023-09-12T07:47:07;97152.13;;;32.30;26.11
42771;BME280;28426;42.872;25.314;2023-09-12T07:49:40;97161.38;;;32.43;26.45
42771;BME280;28426;42.872;25.314;2023-09-12T07:52:11;97154.84;;;32.65;26.66
42771;BME280;28426;42.872;25.314;2023-09-12T07:54:42;97151.16;;;32.91;25.67
42771;BME280;28426;42.872;25.314;2023-09-12T07:57:13;97144.94;;;33.12;25.72
42771;BME280;28426;42.872;25.314;2023-09-12T07:59:44;97148.34;;;33.39;25.94
42771;BME280;28426;42.872;25.314;2023-09-12T08:02:15;97146.38;;;33.70;25.06
42771;BME280;28426;42.872;25.314;2023-09-12T08:04:48;97145.81;;;33.98;24.66
42771;BME280;28426;42.872;25.314;2023-09-12T08:07:19;97141.22;;;34.23;24.64
42771;BME280;28426;42.872;25.314;2023-09-12T08:09:52;97143.47;;;34.42;24.02
42771;BME280;28426;42.872;25.314;2023-09-12T08:12:24;97140.59;;;34.51;23.46
42771;BME280;28426;42.872;25.314;2023-09-12T08:14:55;97139.25;;;34.57;23.12
42771;BME280;28426;42.872;25.314;2023-09-12T08:17:32;97139.91;;;34.54;21.67
42771;BME280;28426;42.872;25.314;2023-09-12T08:20:07;97136.47;;;34.57;21.93
42771;BME280;28426;42.872;25.314;2023-09-12T08:22:40;97134.22;;;34.72;22.51
42771;BME280;28426;42.872;25.314;2023-09-12T08:25:11;97137.00;;;34.85;21.97
42771;BME280;28426;42.872;25.314;2023-09-12T08:27:45;97135.38;;;34.96;22.30
42771;BME280;28426;42.872;25.314;2023-09-12T08:30:16;97133.53;;;35.00;21.36
42771;BME280;28426;42.872;25.314;2023-09-12T08:32:47;97127.06;;;34.96;21.30
42771;BME280;28426;42.872;25.314;2023-09-12T08:35:21;97134.34;;;34.88;21.91
42771;BME280;28426;42.872;25.314;2023-09-12T08:37:54;97135.38;;;34.83;21.60
42771;BME280;28426;42.872;25.314;2023-09-12T08:40:25;97130.88;;;34.79;21.97
42771;BME280;28426;42.872;25.314;2023-09-12T08:42:57;97127.16;;;34.75;22.16
42771;BME280;28426;42.872;25.314;2023-09-12T08:45:31;97125.31;;;34.66;22.38
42771;BME280;28426;42.872;25.314;2023-09-12T08:48:04;97127.19;;;34.41;21.90
42771;BME280;28426;42.872;25.314;2023-09-12T08:50:39;97122.06;;;34.18;21.95
42771;BME280;28426;42.872;25.314;2023-09-12T08:53:10;97130.03;;;33.98;22.54
42771;BME280;28426;42.872;25.314;2023-09-12T08:55:41;97123.69;;;33.76;22.87
42771;BME280;28426;42.872;25.314;2023-09-12T08:58:12;97125.69;;;33.46;22.47
42771;BME280;28426;42.872;25.314;2023-09-12T09:00:43;97122.53;;;33.05;22.82
42771;BME280;28426;42.872;25.314;2023-09-12T09:03:15;97129.13;;;32.73;22.74
42771;BME280;28426;42.872;25.314;2023-09-12T09:05:49;97123.03;;;32.41;23.15
42771;BME280;28426;42.872;25.314;2023-09-12T09:08:22;97120.50;;;32.18;23.82
42771;BME280;28426;42.872;25.314;2023-09-12T09:10:57;97122.63;;;31.95;24.50
42771;BME280;28426;42.872;25.314;2023-09-12T09:13:30;97125.84;;;31.70;24.65
42771;BME280;28426;42.872;25.314;2023-09-12T09:16:11;97111.22;;;31.43;24.71
42771;BME280;28426;42.872;25.314;2023-09-12T09:18:53;97118.94;;;31.24;25.37
42771;BME280;28426;42.872;25.314;2023-09-12T09:21:29;97121.66;;;31.06;25.04
42771;BME280;28426;42.872;25.314;2023-09-12T09:24:02;97129.38;;;30.86;25.69
42771;BME280;28426;42.872;25.314;2023-09-12T09:26:43;97121.03;;;30.69;25.28
42771;BME280;28426;42.872;25.314;2023-09-12T09:29:16;97125.31;;;30.52;25.83
42771;BME280;28426;42.872;25.314;2023-09-12T09:31:50;97115.81;;;30.35;25.92
42771;BME280;28426;42.872;25.314;2023-09-12T09:34:21;97116.69;;;30.22;26.52
42771;BME280;28426;42.872;25.314;2023-09-12T09:36:56;97119.41;;;30.13;26.42
42771;BME280;28426;42.872;25.314;2023-09-12T09:39:28;97107.69;;;30.07;27.03
42771;BME280;28426;42.872;25.314;2023-09-12T09:41:59;97115.56;;;30.00;26.85
42771;BME280;28426;42.872;25.314;2023-09-12T09:44:31;97119.69;;;29.88;26.48
42771;BME280;28426;42.872;25.314;2023-09-12T09:47:04;97108.94;;;29.78;26.65
42771;BME280;28426;42.872;25.314;2023-09-12T09:49:35;97116.19;;;29.74;27.31
42771;BME280;28426;42.872;25.314;2023-09-12T09:52:09;97108.56;;;29.71;27.51
42771;BME280;28426;42.872;25.314;2023-09-12T09:54:43;97109.16;;;29.68;26.99
42771;BME280;28426;42.872;25.314;2023-09-12T09:57:15;97114.47;;;29.64;27.05
42771;BME280;28426;42.872;25.314;2023-09-12T09:59:49;97117.22;;;29.64;27.63
42771;BME280;28426;42.872;25.314;2023-09-12T10:02:22;97105.09;;;29.65;27.57
42771;BME280;28426;42.872;25.314;2023-09-12T10:04:56;97116.28;;;29.69;27.55
42771;BME280;28426;42.872;25.314;2023-09-12T10:07:33;97101.44;;;29.70;27.65
42771;BME280;28426;42.872;25.314;2023-09-12T10:10:05;97099.59;;;29.65;27.87
42771;BME280;28426;42.872;25.314;2023-09-12T10:12:39;97100.72;;;29.64;27.90
42771;BME280;28426;42.872;25.314;2023-09-12T10:15:19;97102.16;;;29.61;27.60
42771;BME280;28426;42.872;25.314;2023-09-12T10:17:56;97102.66;;;29.63;28.18
42771;BME280;28426;42.872;25.314;2023-09-12T10:20:47;97103.66;;;29.68;28.31
42771;BME280;28426;42.872;25.314;2023-09-12T10:23:29;97094.28;;;29.69;27.71
42771;BME280;28426;42.872;25.314;2023-09-12T10:26:04;97111.13;;;29.67;27.73
42771;BME280;28426;42.872;25.314;2023-09-12T10:28:36;97104.31;;;29.65;27.65
42771;BME280;28426;42.872;25.314;2023-09-12T10:31:11;97097.81;;;29.60;27.64
42771;BME280;28426;42.872;25.314;2023-09-12T10:33:43;97099.91;;;29.63;27.62
42771;BME280;28426;42.872;25.314;2023-09-12T10:36:17;97094.28;;;29.69;27.94
42771;BME280;28426;42.872;25.314;2023-09-12T10:38:51;97090.31;;;29.75;27.47
42771;BME280;28426;42.872;25.314;2023-09-12T10:41:24;97091.19;;;29.84;28.03
42771;BME280;28426;42.872;25.314;2023-09-12T10:43:56;97080.44;;;29.97;28.21
42771;BME280;28426;42.872;25.314;2023-09-12T10:46:28;97083.34;;;30.14;27.88
42771;BME280;28426;42.872;25.314;2023-09-12T10:48:59;97081.00;;;30.31;28.12
42771;BME280;28426;42.872;25.314;2023-09-12T10:51:32;97075.75;;;30.52;28.04
42771;BME280;28426;42.872;25.314;2023-09-12T10:54:08;97079.72;;;30.69;26.72
42771;BME280;28426;42.872;25.314;2023-09-12T10:56:39;97073.44;;;30.77;25.95
42771;BME280;28426;42.872;25.314;2023-09-12T10:59:14;97073.31;;;30.82;26.85
42771;BME280;28426;42.872;25.314;2023-09-12T11:01:45;97079.13;;;30.89;26.41
42771;BME280;28426;42.872;25.314;2023-09-12T11:04:31;97067.19;;;30.94;26.26
42771;BME280;28426;42.872;25.314;2023-09-12T11:07:33;97073.63;;;30.89;25.64
42771;BME280;28426;42.872;25.314;2023-09-12T11:10:21;97070.31;;;30.70;25.53
42771;BME280;28426;42.872;25.314;2023-09-12T11:12:55;97068.47;;;30.56;25.83
42771;BME280;28426;42.872;25.314;2023-09-12T11:15:27;97077.03;;;30.46;26.08
42771;BME280;28426;42.872;25.314;2023-09-12T11:18:02;97065.19;;;30.45;26.86
42771;BME280;28426;42.872;25.314;2023-09-12T11:20:51;97050.47;;;30.50;26.79
42771;BME280;28426;42.872;25.314;2023-09-12T11:23:24;97056.53;;;30.70;26.86
42771;BME280;28426;42.872;25.314;2023-09-12T11:26:08;97050.66;;;30.94;27.38
42771;BME280;28426;42.872;25.314;2023-09-12T11:28:42;97057.81;;;31.22;26.71
42771;BME280;28426;42.872;25.314;2023-09-12T11:31:24;97052.84;;;31.50;26.70
42771;BME280;28426;42.872;25.314;2023-09-12T11:34:00;97057.22;;;31.78;26.42
42771;BME280;28426;42.872;25.314;2023-09-12T11:36:38;97051.84;;;31.99;25.79
42771;BME280;28426;42.872;25.314;2023-09-12T11:39:22;97042.41;;;32.09;24.62
42771;BME280;28426;42.872;25.314;2023-09-12T11:41:58;97050.19;;;32.16;24.93
42771;BME280;28426;42.872;25.314;2023-09-12T11:44:30;97048.72;;;32.18;24.80
42771;BME280;28426;42.872;25.314;2023-09-12T11:47:01;97046.59;;;32.15;24.73
42771;BME280;28426;42.872;25.314;2023-09-12T11:49:38;97036.75;;;31.96;24.49
42771;BME280;28426;42.872;25.314;2023-09-12T11:52:10;97042.31;;;31.88;24.44
42771;BME280;28426;42.872;25.314;2023-09-12T11:54:44;97044.84;;;31.84;25.08
42771;BME280;28426;42.872;25.314;2023-09-12T11:57:18;97039.34;;;31.84;24.68
42771;BME280;28426;42.872;25.314;2023-09-12T11:59:49;97040.16;;;31.76;24.81
42771;BME280;28426;42.872;25.314;2023-09-12T12:02:20;97034.84;;;31.62;25.00
42771;BME280;28426;42.872;25.314;2023-09-12T12:04:54;97042.28;;;31.43;24.77
42771;BME280;28426;42.872;25.314;2023-09-12T12:07:28;97040.28;;;31.17;24.28
42771;BME280;28426;42.872;25.314;2023-09-12T12:09:59;97031.69;;;30.92;24.28
42771;BME280;28426;42.872;25.314;2023-09-12T12:12:34;97031.75;;;30.70;24.72
42771;BME280;28426;42.872;25.314;2023-09-12T12:15:09;97031.34;;;30.45;25.01
42771;BME280;28426;42.872;25.314;2023-09-12T12:17:41;97020.38;;;30.22;25.28
42771;BME280;28426;42.872;25.314;2023-09-12T12:20:12;97022.22;;;30.04;25.17
42771;BME280;28426;42.872;25.314;2023-09-12T12:22:42;97015.31;;;29.83;26.06
42771;BME280;28426;42.872;25.314;2023-09-12T12:25:14;97024.38;;;29.61;25.97
42771;BME280;28426;42.872;25.314;2023-09-12T12:27:48;97026.75;;;29.40;25.91
42771;BME280;28426;42.872;25.314;2023-09-12T12:30:19;97025.59;;;29.18;25.94
42771;BME280;28426;42.872;25.314;2023-09-12T12:32:50;97019.94;;;29.00;26.73
42771;BME280;28426;42.872;25.314;2023-09-12T12:35:27;97028.69;;;28.88;26.78
42771;BME280;28426;42.872;25.314;2023-09-12T12:38:18;97025.03;;;28.79;27.23
42771;BME280;28426;42.872;25.314;2023-09-12T12:40:49;97022.22;;;28.70;26.99
42771;BME280;28426;42.872;25.314;2023-09-12T12:43:22;97017.94;;;28.64;27.76
42771;BME280;28426;42.872;25.314;2023-09-12T12:45:56;97019.97;;;28.58;27.20
42771;BME280;28426;42.872;25.314;2023-09-12T12:48:31;97016.53;;;28.52;27.67
42771;BME280;28426;42.872;25.314;2023-09-12T12:51:12;97013.88;;;28.47;28.57
42771;BME280;28426;42.872;25.314;2023-09-12T12:53:45;97010.91;;;28.43;28.41
42771;BME280;28426;42.872;25.314;2023-09-12T12:56:22;97018.97;;;28.40;27.84
42771;BME280;28426;42.872;25.314;2023-09-12T12:58:58;97008.88;;;28.35;27.85
42771;BME280;28426;42.872;25.314;2023-09-12T13:01:31;97005.13;;;28.31;28.18
42771;BME280;28426;42.872;25.314;2023-09-12T13:04:02;97011.44;;;28.31;28.11
42771;BME280;28426;42.872;25.314;2023-09-12T13:06:35;97009.81;;;28.30;27.94
42771;BME280;28426;42.872;25.314;2023-09-12T13:09:07;97005.75;;;28.28;27.75
42771;BME280;28426;42.872;25.314;2023-09-12T13:11:39;97009.59;;;28.27;27.93
42771;BME280;28426;42.872;25.314;2023-09-12T13:14:12;97009.91;;;28.25;28.39
42771;BME280;28426;42.872;25.314;2023-09-12T13:16:43;97007.16;;;28.25;27.80
42771;BME280;28426;42.872;25.314;2023-09-12T13:19:14;97004.69;;;28.24;27.98
42771;BME280;28426;42.872;25.314;2023-09-12T13:21:44;97008.56;;;28.23;28.02
42771;BME280;28426;42.872;25.314;2023-09-12T13:24:15;96999.00;;;28.20;28.51